This is the latest recevied weather packets stored in our database for station/object IU2PLZ-10. If no packets are shown the sender has not sent any weather packets the latest 10 day(s).
| Time | Temp. | Humidity | Pressure | Rain* | Wind** | Luminosity | Snow |
|---|---|---|---|---|---|---|---|
| 1788567889 | 28.33° C | 45% | 970 hPa | - | - | - | - |
| 1788566991 | 28.33° C | 47% | 969.9 hPa | - | - | - | - |
| 1788566084 | 28.33° C | 48% | 970 hPa | - | - | - | - |
| 1788565184 | 27.78° C | 52% | 970 hPa | - | - | - | - |
| 1788564284 | 27.78° C | 53% | 970.1 hPa | - | - | - | - |
| 1788562491 | 27.78° C | 55% | 970.2 hPa | - | - | - | - |
| 1788561586 | 27.78° C | 61% | 970.3 hPa | - | - | - | - |
| 1788560681 | 27.78° C | 66% | 970.3 hPa | - | - | - | - |
| 1788558880 | 27.22° C | 67% | 969.4 hPa | - | - | - | - |
| 1788557980 | 27.78° C | 67% | 969.3 hPa | - | - | - | - |
| 1788557080 | 28.33° C | 68% | 970 hPa | - | - | - | - |
| 1788556316 | 27.78° C | 69% | 969.2 hPa | - | - | - | - |
| 1788556187 | 27.78° C | 69% | 969.2 hPa | - | - | - | - |
| 1788555280 | 27.78° C | 67% | 969 hPa | - | - | - | - |
| 1788554379 | 25.56° C | 65% | 965.9 hPa | - | - | - | - |
| 1788553479 | 27.78° C | 65% | 969.1 hPa | - | - | - | - |
| 1788551684 | 28.33° C | 63% | 969.1 hPa | - | - | - | - |
| 1788550779 | 28.33° C | 64% | 969.2 hPa | - | - | - | - |
| 1788549878 | 28.89° C | 64% | 969.8 hPa | - | - | - | - |
| 1788548078 | 28.89° C | 61% | 969.7 hPa | - | - | - | - |
| 1788547178 | 28.89° C | 59% | 968.6 hPa | - | - | - | - |
| 1788546278 | 29.44° C | 55% | 969.4 hPa | - | - | - | - |
| 1788545385 | 27.22° C | 54% | 965.4 hPa | - | - | - | - |
| 1788544482 | 30° C | 50% | 968.3 hPa | - | - | - | - |
| 1788543577 | 31.11° C | 47% | 969 hPa | - | - | - | - |
* Rain since midnight (hover to see other rain measurements)
** Current wind speed in m/s (hover to see current wind gust speed)